sensor_id;sensor_type;location;lat;lon;timestamp;P1;durP1;ratioP1;P2;durP2;ratioP2
37425;SDS011;23285;50.180;7.036;2023-05-14T00:02:30;3.10;;;2.80;;
37425;SDS011;23285;50.180;7.036;2023-05-14T00:05:17;3.07;;;2.77;;
37425;SDS011;23285;50.180;7.036;2023-05-14T00:08:03;2.70;;;2.50;;
37425;SDS011;23285;50.180;7.036;2023-05-14T00:10:50;4.07;;;2.90;;
37425;SDS011;23285;50.180;7.036;2023-05-14T00:13:38;2.60;;;2.40;;
37425;SDS011;23285;50.180;7.036;2023-05-14T00:16:25;3.17;;;2.80;;
37425;SDS011;23285;50.180;7.036;2023-05-14T00:19:11;4.83;;;3.13;;
37425;SDS011;23285;50.180;7.036;2023-05-14T00:21:57;3.30;;;3.00;;
37425;SDS011;23285;50.180;7.036;2023-05-14T00:24:43;4.70;;;2.80;;
37425;SDS011;23285;50.180;7.036;2023-05-14T00:27:30;3.40;;;2.90;;
37425;SDS011;23285;50.180;7.036;2023-05-14T00:30:18;3.70;;;3.00;;
37425;SDS011;23285;50.180;7.036;2023-05-14T00:33:04;3.03;;;2.73;;
37425;SDS011;23285;50.180;7.036;2023-05-14T00:35:51;5.53;;;2.80;;
37425;SDS011;23285;50.180;7.036;2023-05-14T00:38:37;3.17;;;2.97;;
37425;SDS011;23285;50.180;7.036;2023-05-14T00:41:25;5.87;;;3.00;;
37425;SDS011;23285;50.180;7.036;2023-05-14T00:44:12;2.93;;;2.73;;
37425;SDS011;23285;50.180;7.036;2023-05-14T00:46:59;3.33;;;3.03;;
37425;SDS011;23285;50.180;7.036;2023-05-14T00:49:46;3.27;;;2.90;;
37425;SDS011;23285;50.180;7.036;2023-05-14T00:52:32;3.27;;;2.97;;
37425;SDS011;23285;50.180;7.036;2023-05-14T00:55:19;3.77;;;3.10;;
37425;SDS011;23285;50.180;7.036;2023-05-14T00:58:08;3.00;;;2.70;;
37425;SDS011;23285;50.180;7.036;2023-05-14T01:00:55;3.40;;;3.13;;
37425;SDS011;23285;50.180;7.036;2023-05-14T01:03:43;4.00;;;3.03;;
37425;SDS011;23285;50.180;7.036;2023-05-14T01:06:33;3.27;;;3.03;;
37425;SDS011;23285;50.180;7.036;2023-05-14T01:09:31;3.60;;;3.30;;
37425;SDS011;23285;50.180;7.036;2023-05-14T01:12:24;6.17;;;3.17;;
37425;SDS011;23285;50.180;7.036;2023-05-14T01:15:18;7.30;;;2.90;;
37425;SDS011;23285;50.180;7.036;2023-05-14T01:18:06;3.33;;;3.03;;
37425;SDS011;23285;50.180;7.036;2023-05-14T01:20:54;3.33;;;3.03;;
37425;SDS011;23285;50.180;7.036;2023-05-14T01:23:42;3.37;;;3.07;;
37425;SDS011;23285;50.180;7.036;2023-05-14T01:26:29;4.07;;;2.90;;
37425;SDS011;23285;50.180;7.036;2023-05-14T01:29:18;3.00;;;2.80;;
37425;SDS011;23285;50.180;7.036;2023-05-14T01:32:07;4.27;;;3.40;;
37425;SDS011;23285;50.180;7.036;2023-05-14T01:34:54;4.43;;;2.93;;
37425;SDS011;23285;50.180;7.036;2023-05-14T01:37:45;3.40;;;3.10;;
37425;SDS011;23285;50.180;7.036;2023-05-14T01:40:34;3.67;;;2.83;;
37425;SDS011;23285;50.180;7.036;2023-05-14T01:43:21;3.47;;;3.17;;
37425;SDS011;23285;50.180;7.036;2023-05-14T01:46:08;3.17;;;2.93;;
37425;SDS011;23285;50.180;7.036;2023-05-14T01:48:54;4.87;;;3.10;;
37425;SDS011;23285;50.180;7.036;2023-05-14T01:51:40;3.93;;;3.60;;
37425;SDS011;23285;50.180;7.036;2023-05-14T01:54:27;3.10;;;2.87;;
37425;SDS011;23285;50.180;7.036;2023-05-14T01:57:15;4.30;;;3.30;;
37425;SDS011;23285;50.180;7.036;2023-05-14T02:00:01;3.30;;;3.10;;
37425;SDS011;23285;50.180;7.036;2023-05-14T02:02:58;3.57;;;3.27;;
37425;SDS011;23285;50.180;7.036;2023-05-14T02:05:44;5.43;;;3.53;;
37425;SDS011;23285;50.180;7.036;2023-05-14T02:08:31;3.87;;;3.27;;
37425;SDS011;23285;50.180;7.036;2023-05-14T02:11:17;4.20;;;3.10;;
37425;SDS011;23285;50.180;7.036;2023-05-14T02:14:05;3.27;;;2.97;;
37425;SDS011;23285;50.180;7.036;2023-05-14T02:16:51;3.33;;;3.03;;
37425;SDS011;23285;50.180;7.036;2023-05-14T02:19:38;3.50;;;3.20;;
37425;SDS011;23285;50.180;7.036;2023-05-14T02:22:24;5.70;;;3.90;;
37425;SDS011;23285;50.180;7.036;2023-05-14T02:25:11;6.40;;;4.57;;
37425;SDS011;23285;50.180;7.036;2023-05-14T02:27:57;9.03;;;4.73;;
37425;SDS011;23285;50.180;7.036;2023-05-14T02:30:45;5.67;;;3.80;;
37425;SDS011;23285;50.180;7.036;2023-05-14T02:33:32;3.60;;;3.30;;
37425;SDS011;23285;50.180;7.036;2023-05-14T02:36:18;5.23;;;3.43;;
37425;SDS011;23285;50.180;7.036;2023-05-14T02:39:05;3.60;;;3.30;;
37425;SDS011;23285;50.180;7.036;2023-05-14T02:41:52;4.73;;;3.10;;
37425;SDS011;23285;50.180;7.036;2023-05-14T02:44:38;3.87;;;3.57;;
37425;SDS011;23285;50.180;7.036;2023-05-14T02:47:27;3.83;;;3.40;;
37425;SDS011;23285;50.180;7.036;2023-05-14T02:50:13;3.33;;;3.00;;
37425;SDS011;23285;50.180;7.036;2023-05-14T02:53:00;3.30;;;3.10;;
37425;SDS011;23285;50.180;7.036;2023-05-14T02:55:46;5.97;;;3.50;;
37425;SDS011;23285;50.180;7.036;2023-05-14T02:58:32;3.63;;;3.33;;
37425;SDS011;23285;50.180;7.036;2023-05-14T03:01:19;3.73;;;3.30;;
37425;SDS011;23285;50.180;7.036;2023-05-14T03:04:06;3.87;;;3.10;;
37425;SDS011;23285;50.180;7.036;2023-05-14T03:06:53;4.20;;;3.80;;
37425;SDS011;23285;50.180;7.036;2023-05-14T03:09:39;4.13;;;3.10;;
37425;SDS011;23285;50.180;7.036;2023-05-14T03:12:26;4.37;;;3.67;;
37425;SDS011;23285;50.180;7.036;2023-05-14T03:15:13;3.83;;;3.53;;
37425;SDS011;23285;50.180;7.036;2023-05-14T03:17:59;6.10;;;4.53;;
37425;SDS011;23285;50.180;7.036;2023-05-14T03:20:47;4.77;;;4.37;;
37425;SDS011;23285;50.180;7.036;2023-05-14T03:23:33;5.20;;;4.57;;
37425;SDS011;23285;50.180;7.036;2023-05-14T03:26:20;5.73;;;5.13;;
37425;SDS011;23285;50.180;7.036;2023-05-14T03:29:06;5.20;;;4.70;;
37425;SDS011;23285;50.180;7.036;2023-05-14T03:31:54;5.90;;;5.40;;
37425;SDS011;23285;50.180;7.036;2023-05-14T03:34:40;6.20;;;5.70;;
37425;SDS011;23285;50.180;7.036;2023-05-14T03:37:29;9.13;;;6.23;;
37425;SDS011;23285;50.180;7.036;2023-05-14T03:40:16;6.67;;;6.07;;
37425;SDS011;23285;50.180;7.036;2023-05-14T03:43:02;7.07;;;6.37;;
37425;SDS011;23285;50.180;7.036;2023-05-14T03:45:48;6.90;;;6.30;;
37425;SDS011;23285;50.180;7.036;2023-05-14T03:48:36;7.33;;;6.00;;
37425;SDS011;23285;50.180;7.036;2023-05-14T03:51:23;7.00;;;6.40;;
37425;SDS011;23285;50.180;7.036;2023-05-14T03:54:10;7.07;;;6.47;;
37425;SDS011;23285;50.180;7.036;2023-05-14T03:56:56;7.67;;;6.90;;
37425;SDS011;23285;50.180;7.036;2023-05-14T03:59:42;7.93;;;7.23;;
37425;SDS011;23285;50.180;7.036;2023-05-14T04:02:28;7.47;;;6.77;;
37425;SDS011;23285;50.180;7.036;2023-05-14T04:05:15;8.17;;;7.47;;
37425;SDS011;23285;50.180;7.036;2023-05-14T04:08:01;9.57;;;7.77;;
37425;SDS011;23285;50.180;7.036;2023-05-14T04:10:49;9.00;;;8.20;;
37425;SDS011;23285;50.180;7.036;2023-05-14T04:13:35;10.37;;;9.37;;
37425;SDS011;23285;50.180;7.036;2023-05-14T04:16:21;9.77;;;8.77;;
37425;SDS011;23285;50.180;7.036;2023-05-14T04:19:07;8.60;;;7.80;;
37425;SDS011;23285;50.180;7.036;2023-05-14T04:21:53;10.43;;;9.00;;
37425;SDS011;23285;50.180;7.036;2023-05-14T04:24:40;9.97;;;8.67;;
37425;SDS011;23285;50.180;7.036;2023-05-14T04:27:28;11.27;;;8.90;;
37425;SDS011;23285;50.180;7.036;2023-05-14T04:30:14;9.77;;;8.73;;
37425;SDS011;23285;50.180;7.036;2023-05-14T04:33:01;9.30;;;8.40;;
37425;SDS011;23285;50.180;7.036;2023-05-14T04:35:47;9.90;;;8.20;;
37425;SDS011;23285;50.180;7.036;2023-05-14T04:38:35;11.70;;;9.90;;
37425;SDS011;23285;50.180;7.036;2023-05-14T04:41:22;10.87;;;9.87;;
37425;SDS011;23285;50.180;7.036;2023-05-14T04:44:11;9.43;;;8.40;;
37425;SDS011;23285;50.180;7.036;2023-05-14T04:46:57;9.87;;;8.87;;
37425;SDS011;23285;50.180;7.036;2023-05-14T04:49:43;10.60;;;9.37;;
37425;SDS011;23285;50.180;7.036;2023-05-14T04:52:30;9.97;;;8.90;;
37425;SDS011;23285;50.180;7.036;2023-05-14T04:55:17;9.63;;;8.73;;
37425;SDS011;23285;50.180;7.036;2023-05-14T04:58:04;10.27;;;9.27;;
37425;SDS011;23285;50.180;7.036;2023-05-14T05:00:52;8.50;;;7.67;;
37425;SDS011;23285;50.180;7.036;2023-05-14T05:03:38;8.07;;;7.27;;
37425;SDS011;23285;50.180;7.036;2023-05-14T05:06:24;8.60;;;7.80;;
37425;SDS011;23285;50.180;7.036;2023-05-14T05:09:11;8.90;;;8.10;;
37425;SDS011;23285;50.180;7.036;2023-05-14T05:11:57;9.37;;;8.33;;
37425;SDS011;23285;50.180;7.036;2023-05-14T05:14:44;9.57;;;8.67;;
37425;SDS011;23285;50.180;7.036;2023-05-14T05:17:32;11.27;;;8.90;;
37425;SDS011;23285;50.180;7.036;2023-05-14T05:20:19;10.03;;;8.67;;
37425;SDS011;23285;50.180;7.036;2023-05-14T05:23:05;12.03;;;9.30;;
37425;SDS011;23285;50.180;7.036;2023-05-14T05:25:51;10.13;;;9.00;;
37425;SDS011;23285;50.180;7.036;2023-05-14T05:28:38;10.47;;;8.43;;
37425;SDS011;23285;50.180;7.036;2023-05-14T05:31:24;9.23;;;8.23;;
37425;SDS011;23285;50.180;7.036;2023-05-14T05:34:12;9.20;;;8.33;;
37425;SDS011;23285;50.180;7.036;2023-05-14T05:36:59;9.53;;;8.63;;
37425;SDS011;23285;50.180;7.036;2023-05-14T05:39:49;10.37;;;8.87;;
37425;SDS011;23285;50.180;7.036;2023-05-14T05:42:35;9.03;;;8.13;;
37425;SDS011;23285;50.180;7.036;2023-05-14T05:45:22;11.17;;;9.43;;
37425;SDS011;23285;50.180;7.036;2023-05-14T05:48:08;9.40;;;8.13;;
37425;SDS011;23285;50.180;7.036;2023-05-14T05:50:56;9.97;;;8.67;;
37425;SDS011;23285;50.180;7.036;2023-05-14T05:53:42;9.23;;;8.33;;
37425;SDS011;23285;50.180;7.036;2023-05-14T05:56:29;9.60;;;7.70;;
37425;SDS011;23285;50.180;7.036;2023-05-14T05:59:15;8.40;;;7.60;;
37425;SDS011;23285;50.180;7.036;2023-05-14T06:02:01;8.37;;;7.30;;
37425;SDS011;23285;50.180;7.036;2023-05-14T06:04:47;7.73;;;6.93;;
37425;SDS011;23285;50.180;7.036;2023-05-14T06:07:35;7.50;;;6.50;;
37425;SDS011;23285;50.180;7.036;2023-05-14T06:10:22;7.23;;;6.53;;
37425;SDS011;23285;50.180;7.036;2023-05-14T06:13:08;8.80;;;6.83;;
37425;SDS011;23285;50.180;7.036;2023-05-14T06:15:54;6.50;;;5.90;;
37425;SDS011;23285;50.180;7.036;2023-05-14T06:18:41;8.47;;;7.10;;
37425;SDS011;23285;50.180;7.036;2023-05-14T06:21:27;8.10;;;7.30;;
37425;SDS011;23285;50.180;7.036;2023-05-14T06:24:14;10.20;;;7.00;;
37425;SDS011;23285;50.180;7.036;2023-05-14T06:27:03;7.50;;;6.10;;
37425;SDS011;23285;50.180;7.036;2023-05-14T06:29:49;6.30;;;5.70;;
37425;SDS011;23285;50.180;7.036;2023-05-14T06:32:35;8.47;;;6.07;;
37425;SDS011;23285;50.180;7.036;2023-05-14T06:35:22;8.67;;;5.43;;
37425;SDS011;23285;50.180;7.036;2023-05-14T06:38:09;8.07;;;6.30;;
37425;SDS011;23285;50.180;7.036;2023-05-14T06:40:56;6.40;;;5.80;;
37425;SDS011;23285;50.180;7.036;2023-05-14T06:43:42;6.23;;;5.20;;
37425;SDS011;23285;50.180;7.036;2023-05-14T06:46:28;6.20;;;5.60;;
37425;SDS011;23285;50.180;7.036;2023-05-14T06:49:15;6.50;;;5.90;;
37425;SDS011;23285;50.180;7.036;2023-05-14T06:52:01;6.23;;;5.73;;
37425;SDS011;23285;50.180;7.036;2023-05-14T06:54:47;5.60;;;5.10;;
37425;SDS011;23285;50.180;7.036;2023-05-14T06:57:35;6.87;;;6.10;;
37425;SDS011;23285;50.180;7.036;2023-05-14T07:00:21;7.80;;;5.30;;
37425;SDS011;23285;50.180;7.036;2023-05-14T07:03:08;6.43;;;5.80;;
37425;SDS011;23285;50.180;7.036;2023-05-14T07:05:54;6.23;;;5.43;;
37425;SDS011;23285;50.180;7.036;2023-05-14T07:08:41;7.80;;;6.17;;
37425;SDS011;23285;50.180;7.036;2023-05-14T07:11:29;9.80;;;6.17;;
37425;SDS011;23285;50.180;7.036;2023-05-14T07:14:16;5.63;;;5.13;;
37425;SDS011;23285;50.180;7.036;2023-05-14T07:17:03;6.27;;;5.67;;
37425;SDS011;23285;50.180;7.036;2023-05-14T07:19:49;6.17;;;5.60;;
37425;SDS011;23285;50.180;7.036;2023-05-14T07:22:35;7.70;;;5.73;;
37425;SDS011;23285;50.180;7.036;2023-05-14T07:25:21;6.27;;;5.67;;
37425;SDS011;23285;50.180;7.036;2023-05-14T07:28:08;8.60;;;5.23;;
37425;SDS011;23285;50.180;7.036;2023-05-14T07:30:55;5.57;;;5.07;;
37425;SDS011;23285;50.180;7.036;2023-05-14T07:33:42;6.80;;;5.00;;
37425;SDS011;23285;50.180;7.036;2023-05-14T07:36:28;5.97;;;5.27;;
37425;SDS011;23285;50.180;7.036;2023-05-14T07:39:15;6.10;;;5.50;;
37425;SDS011;23285;50.180;7.036;2023-05-14T07:42:01;5.63;;;5.17;;
37425;SDS011;23285;50.180;7.036;2023-05-14T07:44:48;7.63;;;5.20;;
37425;SDS011;23285;50.180;7.036;2023-05-14T07:47:36;5.90;;;5.20;;
37425;SDS011;23285;50.180;7.036;2023-05-14T07:50:22;6.67;;;5.33;;
37425;SDS011;23285;50.180;7.036;2023-05-14T07:53:09;6.07;;;4.73;;
37425;SDS011;23285;50.180;7.036;2023-05-14T07:55:56;5.67;;;4.63;;
37425;SDS011;23285;50.180;7.036;2023-05-14T07:58:43;5.63;;;5.03;;
37425;SDS011;23285;50.180;7.036;2023-05-14T08:01:29;5.37;;;4.87;;
37425;SDS011;23285;50.180;7.036;2023-05-14T08:04:17;5.33;;;4.83;;
37425;SDS011;23285;50.180;7.036;2023-05-14T08:07:03;5.80;;;4.83;;
37425;SDS011;23285;50.180;7.036;2023-05-14T08:09:51;7.23;;;5.33;;
37425;SDS011;23285;50.180;7.036;2023-05-14T08:12:38;6.07;;;5.07;;
37425;SDS011;23285;50.180;7.036;2023-05-14T08:15:25;6.20;;;5.60;;
37425;SDS011;23285;50.180;7.036;2023-05-14T08:18:11;5.60;;;5.10;;
37425;SDS011;23285;50.180;7.036;2023-05-14T08:20:59;6.27;;;5.20;;
37425;SDS011;23285;50.180;7.036;2023-05-14T08:23:45;6.10;;;5.50;;
37425;SDS011;23285;50.180;7.036;2023-05-14T08:26:31;8.07;;;4.93;;
37425;SDS011;23285;50.180;7.036;2023-05-14T08:29:18;5.67;;;5.03;;
37425;SDS011;23285;50.180;7.036;2023-05-14T08:32:05;7.47;;;5.53;;
37425;SDS011;23285;50.180;7.036;2023-05-14T08:34:51;5.73;;;5.13;;
37425;SDS011;23285;50.180;7.036;2023-05-14T08:37:39;5.80;;;5.30;;
37425;SDS011;23285;50.180;7.036;2023-05-14T08:40:25;6.27;;;5.53;;
37425;SDS011;23285;50.180;7.036;2023-05-14T08:43:15;5.97;;;5.47;;
37425;SDS011;23285;50.180;7.036;2023-05-14T08:46:04;5.40;;;4.90;;
37425;SDS011;23285;50.180;7.036;2023-05-14T08:48:55;6.63;;;4.93;;
37425;SDS011;23285;50.180;7.036;2023-05-14T08:51:46;7.73;;;4.80;;
37425;SDS011;23285;50.180;7.036;2023-05-14T08:54:34;4.90;;;4.40;;
37425;SDS011;23285;50.180;7.036;2023-05-14T08:57:21;6.10;;;4.60;;
37425;SDS011;23285;50.180;7.036;2023-05-14T09:00:10;4.90;;;4.40;;
37425;SDS011;23285;50.180;7.036;2023-05-14T09:02:59;5.77;;;4.57;;
37425;SDS011;23285;50.180;7.036;2023-05-14T09:05:46;5.57;;;4.60;;
37425;SDS011;23285;50.180;7.036;2023-05-14T09:08:34;4.50;;;4.10;;
37425;SDS011;23285;50.180;7.036;2023-05-14T09:11:23;4.83;;;4.33;;
37425;SDS011;23285;50.180;7.036;2023-05-14T09:14:09;5.93;;;4.23;;
37425;SDS011;23285;50.180;7.036;2023-05-14T09:16:56;9.33;;;4.73;;
37425;SDS011;23285;50.180;7.036;2023-05-14T09:19:42;4.60;;;4.20;;
37425;SDS011;23285;50.180;7.036;2023-05-14T09:22:30;5.03;;;4.53;;
37425;SDS011;23285;50.180;7.036;2023-05-14T09:25:16;4.53;;;4.13;;
37425;SDS011;23285;50.180;7.036;2023-05-14T09:28:05;4.13;;;3.83;;
37425;SDS011;23285;50.180;7.036;2023-05-14T09:30:53;3.80;;;3.50;;
37425;SDS011;23285;50.180;7.036;2023-05-14T09:33:40;4.53;;;3.80;;
37425;SDS011;23285;50.180;7.036;2023-05-14T09:36:26;4.50;;;4.10;;
37425;SDS011;23285;50.180;7.036;2023-05-14T09:39:12;4.50;;;4.10;;
37425;SDS011;23285;50.180;7.036;2023-05-14T09:41:59;4.33;;;4.03;;
37425;SDS011;23285;50.180;7.036;2023-05-14T09:44:47;4.47;;;4.07;;
37425;SDS011;23285;50.180;7.036;2023-05-14T09:47:33;4.03;;;3.73;;
37425;SDS011;23285;50.180;7.036;2023-05-14T09:50:19;4.93;;;4.43;;
37425;SDS011;23285;50.180;7.036;2023-05-14T09:53:06;4.17;;;3.77;;
37425;SDS011;23285;50.180;7.036;2023-05-14T09:55:53;4.50;;;4.10;;
37425;SDS011;23285;50.180;7.036;2023-05-14T09:58:39;5.83;;;4.33;;
37425;SDS011;23285;50.180;7.036;2023-05-14T10:01:27;5.27;;;4.50;;
37425;SDS011;23285;50.180;7.036;2023-05-14T10:04:14;4.67;;;4.27;;
37425;SDS011;23285;50.180;7.036;2023-05-14T10:07:01;5.30;;;4.47;;
37425;SDS011;23285;50.180;7.036;2023-05-14T10:09:48;6.83;;;4.20;;
37425;SDS011;23285;50.180;7.036;2023-05-14T10:12:40;5.73;;;4.20;;
37425;SDS011;23285;50.180;7.036;2023-05-14T10:15:32;3.43;;;3.17;;
37425;SDS011;23285;50.180;7.036;2023-05-14T10:18:22;4.10;;;3.80;;
37425;SDS011;23285;50.180;7.036;2023-05-14T10:21:09;4.00;;;3.60;;
37425;SDS011;23285;50.180;7.036;2023-05-14T10:23:56;4.53;;;3.90;;
37425;SDS011;23285;50.180;7.036;2023-05-14T10:26:43;3.93;;;3.63;;
37425;SDS011;23285;50.180;7.036;2023-05-14T10:29:31;4.03;;;3.73;;
37425;SDS011;23285;50.180;7.036;2023-05-14T10:32:18;5.13;;;3.90;;
37425;SDS011;23285;50.180;7.036;2023-05-14T10:35:15;4.00;;;3.70;;
37425;SDS011;23285;50.180;7.036;2023-05-14T10:38:06;3.47;;;3.17;;
37425;SDS011;23285;50.180;7.036;2023-05-14T10:40:54;3.07;;;2.83;;
37425;SDS011;23285;50.180;7.036;2023-05-14T10:43:42;5.13;;;3.33;;
37425;SDS011;23285;50.180;7.036;2023-05-14T10:46:29;3.33;;;3.13;;
37425;SDS011;23285;50.180;7.036;2023-05-14T10:49:15;6.47;;;2.97;;
37425;SDS011;23285;50.180;7.036;2023-05-14T10:52:03;3.70;;;2.87;;
37425;SDS011;23285;50.180;7.036;2023-05-14T10:54:53;3.13;;;2.83;;
37425;SDS011;23285;50.180;7.036;2023-05-14T10:57:41;3.30;;;2.30;;
37425;SDS011;23285;50.180;7.036;2023-05-14T11:00:28;2.23;;;2.00;;
37425;SDS011;23285;50.180;7.036;2023-05-14T11:03:18;3.73;;;2.70;;
37425;SDS011;23285;50.180;7.036;2023-05-14T11:06:06;2.77;;;2.57;;
37425;SDS011;23285;50.180;7.036;2023-05-14T11:08:54;4.20;;;2.07;;
37425;SDS011;23285;50.180;7.036;2023-05-14T11:11:42;2.67;;;2.47;;
37425;SDS011;23285;50.180;7.036;2023-05-14T11:14:28;3.40;;;2.60;;
37425;SDS011;23285;50.180;7.036;2023-05-14T11:17:15;2.60;;;2.40;;
37425;SDS011;23285;50.180;7.036;2023-05-14T11:20:01;2.63;;;2.43;;
37425;SDS011;23285;50.180;7.036;2023-05-14T11:22:49;2.63;;;2.33;;
37425;SDS011;23285;50.180;7.036;2023-05-14T11:25:37;3.03;;;2.40;;
37425;SDS011;23285;50.180;7.036;2023-05-14T11:28:24;2.90;;;2.70;;
37425;SDS011;23285;50.180;7.036;2023-05-14T11:31:11;6.27;;;2.60;;
37425;SDS011;23285;50.180;7.036;2023-05-14T11:33:57;4.30;;;3.43;;
37425;SDS011;23285;50.180;7.036;2023-05-14T11:36:44;6.83;;;4.43;;
37425;SDS011;23285;50.180;7.036;2023-05-14T11:39:30;27.13;;;16.57;;
37425;SDS011;23285;50.180;7.036;2023-05-14T11:42:19;4.93;;;2.73;;
37425;SDS011;23285;50.180;7.036;2023-05-14T11:45:09;9.73;;;7.37;;
37425;SDS011;23285;50.180;7.036;2023-05-14T11:47:56;5.23;;;4.43;;
37425;SDS011;23285;50.180;7.036;2023-05-14T11:50:43;2.83;;;2.63;;
37425;SDS011;23285;50.180;7.036;2023-05-14T11:53:30;4.83;;;3.50;;
37425;SDS011;23285;50.180;7.036;2023-05-14T11:56:16;6.23;;;5.10;;
37425;SDS011;23285;50.180;7.036;2023-05-14T11:59:04;4.37;;;2.83;;
37425;SDS011;23285;50.180;7.036;2023-05-14T12:01:51;9.37;;;7.07;;
37425;SDS011;23285;50.180;7.036;2023-05-14T12:04:37;2.93;;;2.37;;
37425;SDS011;23285;50.180;7.036;2023-05-14T12:07:27;4.63;;;4.23;;
37425;SDS011;23285;50.180;7.036;2023-05-14T12:10:14;6.40;;;5.10;;
37425;SDS011;23285;50.180;7.036;2023-05-14T12:13:00;4.57;;;2.70;;
37425;SDS011;23285;50.180;7.036;2023-05-14T12:15:54;5.37;;;4.07;;
37425;SDS011;23285;50.180;7.036;2023-05-14T12:18:41;4.33;;;3.57;;
37425;SDS011;23285;50.180;7.036;2023-05-14T12:21:27;2.60;;;2.40;;
37425;SDS011;23285;50.180;7.036;2023-05-14T12:24:15;4.63;;;2.63;;
37425;SDS011;23285;50.180;7.036;2023-05-14T12:27:02;4.30;;;3.90;;
37425;SDS011;23285;50.180;7.036;2023-05-14T12:29:49;3.80;;;2.80;;
37425;SDS011;23285;50.180;7.036;2023-05-14T12:32:44;3.00;;;2.20;;
37425;SDS011;23285;50.180;7.036;2023-05-14T12:35:30;2.10;;;1.90;;
37425;SDS011;23285;50.180;7.036;2023-05-14T12:38:17;3.00;;;2.23;;
37425;SDS011;23285;50.180;7.036;2023-05-14T12:41:03;2.50;;;2.00;;
37425;SDS011;23285;50.180;7.036;2023-05-14T12:43:49;1.80;;;1.70;;
37425;SDS011;23285;50.180;7.036;2023-05-14T12:46:36;2.83;;;2.17;;
37425;SDS011;23285;50.180;7.036;2023-05-14T12:49:24;2.23;;;2.07;;
37425;SDS011;23285;50.180;7.036;2023-05-14T12:52:10;2.33;;;2.13;;
37425;SDS011;23285;50.180;7.036;2023-05-14T12:54:56;2.73;;;2.33;;
37425;SDS011;23285;50.180;7.036;2023-05-14T12:57:42;3.43;;;2.20;;
37425;SDS011;23285;50.180;7.036;2023-05-14T13:00:28;4.10;;;2.20;;
37425;SDS011;23285;50.180;7.036;2023-05-14T13:03:15;3.13;;;2.27;;
37425;SDS011;23285;50.180;7.036;2023-05-14T13:06:03;2.63;;;2.10;;
37425;SDS011;23285;50.180;7.036;2023-05-14T13:08:50;2.67;;;2.00;;
37425;SDS011;23285;50.180;7.036;2023-05-14T13:11:36;2.20;;;2.00;;
37425;SDS011;23285;50.180;7.036;2023-05-14T13:14:23;3.10;;;2.10;;
37425;SDS011;23285;50.180;7.036;2023-05-14T13:17:09;2.37;;;2.03;;
37425;SDS011;23285;50.180;7.036;2023-05-14T13:19:56;2.10;;;1.90;;
37425;SDS011;23285;50.180;7.036;2023-05-14T13:22:43;3.57;;;1.50;;
37425;SDS011;23285;50.180;7.036;2023-05-14T13:25:29;1.73;;;1.47;;
37425;SDS011;23285;50.180;7.036;2023-05-14T13:28:16;4.07;;;1.77;;
37425;SDS011;23285;50.180;7.036;2023-05-14T13:31:03;1.63;;;1.53;;
37425;SDS011;23285;50.180;7.036;2023-05-14T13:33:51;2.20;;;1.63;;
37425;SDS011;23285;50.180;7.036;2023-05-14T13:36:37;1.97;;;1.87;;
37425;SDS011;23285;50.180;7.036;2023-05-14T13:39:25;2.50;;;1.50;;
37425;SDS011;23285;50.180;7.036;2023-05-14T13:42:11;1.67;;;1.50;;
37425;SDS011;23285;50.180;7.036;2023-05-14T13:44:58;2.83;;;2.00;;
37425;SDS011;23285;50.180;7.036;2023-05-14T13:47:44;3.60;;;1.60;;
37425;SDS011;23285;50.180;7.036;2023-05-14T13:50:30;2.10;;;1.80;;
37425;SDS011;23285;50.180;7.036;2023-05-14T13:53:16;3.13;;;1.83;;
37425;SDS011;23285;50.180;7.036;2023-05-14T13:56:04;2.10;;;1.90;;
37425;SDS011;23285;50.180;7.036;2023-05-14T13:58:51;3.20;;;2.23;;
37425;SDS011;23285;50.180;7.036;2023-05-14T14:01:38;2.43;;;2.20;;
37425;SDS011;23285;50.180;7.036;2023-05-14T14:04:26;3.80;;;2.30;;
37425;SDS011;23285;50.180;7.036;2023-05-14T14:07:13;2.30;;;2.10;;
37425;SDS011;23285;50.180;7.036;2023-05-14T14:09:59;2.70;;;1.97;;
37425;SDS011;23285;50.180;7.036;2023-05-14T14:12:47;2.07;;;1.83;;
37425;SDS011;23285;50.180;7.036;2023-05-14T14:15:34;3.23;;;2.20;;
37425;SDS011;23285;50.180;7.036;2023-05-14T14:18:20;2.30;;;2.10;;
37425;SDS011;23285;50.180;7.036;2023-05-14T14:21:06;1.90;;;1.80;;
37425;SDS011;23285;50.180;7.036;2023-05-14T14:23:53;2.67;;;2.07;;
37425;SDS011;23285;50.180;7.036;2023-05-14T14:26:39;1.67;;;1.57;;
37425;SDS011;23285;50.180;7.036;2023-05-14T14:29:27;3.07;;;2.10;;
37425;SDS011;23285;50.180;7.036;2023-05-14T14:32:14;2.20;;;1.80;;
37425;SDS011;23285;50.180;7.036;2023-05-14T14:35:00;3.60;;;2.10;;
37425;SDS011;23285;50.180;7.036;2023-05-14T14:37:48;4.03;;;1.90;;
37425;SDS011;23285;50.180;7.036;2023-05-14T14:40:37;3.00;;;1.70;;
37425;SDS011;23285;50.180;7.036;2023-05-14T14:43:23;5.10;;;1.90;;
37425;SDS011;23285;50.180;7.036;2023-05-14T14:46:11;2.40;;;1.90;;
37425;SDS011;23285;50.180;7.036;2023-05-14T14:48:57;2.00;;;1.90;;
37425;SDS011;23285;50.180;7.036;2023-05-14T14:51:45;3.70;;;1.90;;
37425;SDS011;23285;50.180;7.036;2023-05-14T14:54:31;5.13;;;2.30;;
37425;SDS011;23285;50.180;7.036;2023-05-14T14:57:17;2.70;;;2.50;;
37425;SDS011;23285;50.180;7.036;2023-05-14T15:00:05;2.40;;;2.20;;
37425;SDS011;23285;50.180;7.036;2023-05-14T15:02:54;3.40;;;2.53;;
37425;SDS011;23285;50.180;7.036;2023-05-14T15:05:40;2.60;;;2.40;;
37425;SDS011;23285;50.180;7.036;2023-05-14T15:08:26;3.87;;;2.37;;
37425;SDS011;23285;50.180;7.036;2023-05-14T15:11:13;3.67;;;3.37;;
37425;SDS011;23285;50.180;7.036;2023-05-14T15:13:59;5.27;;;4.27;;
37425;SDS011;23285;50.180;7.036;2023-05-14T15:16:45;4.83;;;4.33;;
37425;SDS011;23285;50.180;7.036;2023-05-14T15:19:33;4.40;;;4.00;;
37425;SDS011;23285;50.180;7.036;2023-05-14T15:22:20;4.97;;;3.10;;
37425;SDS011;23285;50.180;7.036;2023-05-14T15:25:06;4.73;;;3.43;;
37425;SDS011;23285;50.180;7.036;2023-05-14T15:27:53;5.37;;;4.27;;
37425;SDS011;23285;50.180;7.036;2023-05-14T15:30:39;8.13;;;3.50;;
37425;SDS011;23285;50.180;7.036;2023-05-14T15:33:25;4.60;;;3.90;;
37425;SDS011;23285;50.180;7.036;2023-05-14T15:36:13;7.43;;;3.90;;
37425;SDS011;23285;50.180;7.036;2023-05-14T15:39:00;5.47;;;4.00;;
37425;SDS011;23285;50.180;7.036;2023-05-14T15:41:46;5.63;;;4.03;;
37425;SDS011;23285;50.180;7.036;2023-05-14T15:44:32;3.20;;;2.90;;
37425;SDS011;23285;50.180;7.036;2023-05-14T15:47:19;5.80;;;2.70;;
37425;SDS011;23285;50.180;7.036;2023-05-14T15:50:06;4.63;;;2.60;;
37425;SDS011;23285;50.180;7.036;2023-05-14T15:52:54;5.13;;;2.97;;
37425;SDS011;23285;50.180;7.036;2023-05-14T15:55:40;3.90;;;2.40;;
37425;SDS011;23285;50.180;7.036;2023-05-14T15:58:27;10.47;;;4.00;;
37425;SDS011;23285;50.180;7.036;2023-05-14T16:01:14;6.03;;;3.40;;
37425;SDS011;23285;50.180;7.036;2023-05-14T16:04:00;7.43;;;4.10;;
37425;SDS011;23285;50.180;7.036;2023-05-14T16:06:47;6.33;;;5.20;;
37425;SDS011;23285;50.180;7.036;2023-05-14T16:09:35;5.90;;;4.60;;
37425;SDS011;23285;50.180;7.036;2023-05-14T16:12:21;5.43;;;4.30;;
37425;SDS011;23285;50.180;7.036;2023-05-14T16:15:08;6.27;;;4.10;;
37425;SDS011;23285;50.180;7.036;2023-05-14T16:17:54;7.67;;;5.27;;
37425;SDS011;23285;50.180;7.036;2023-05-14T16:20:40;12.03;;;4.03;;
37425;SDS011;23285;50.180;7.036;2023-05-14T16:23:27;5.33;;;3.40;;
37425;SDS011;23285;50.180;7.036;2023-05-14T16:26:14;4.13;;;3.70;;
37425;SDS011;23285;50.180;7.036;2023-05-14T16:29:01;5.10;;;3.70;;
37425;SDS011;23285;50.180;7.036;2023-05-14T16:31:47;5.60;;;3.97;;
37425;SDS011;23285;50.180;7.036;2023-05-14T16:34:33;4.40;;;4.00;;
37425;SDS011;23285;50.180;7.036;2023-05-14T16:37:20;4.17;;;3.87;;
37425;SDS011;23285;50.180;7.036;2023-05-14T16:40:07;3.93;;;3.53;;
37425;SDS011;23285;50.180;7.036;2023-05-14T16:42:56;3.10;;;2.80;;
37425;SDS011;23285;50.180;7.036;2023-05-14T16:45:42;5.87;;;3.60;;
37425;SDS011;23285;50.180;7.036;2023-05-14T16:48:29;6.10;;;3.77;;